This is the latest recevied weather packets stored in our database for station/object KE4BFX. If no packets are shown the sender has not sent any weather packets the latest 10 day(s).
| Time | Temp. | Humidity | Pressure | Rain* | Wind** | Luminosity | Snow |
|---|---|---|---|---|---|---|---|
| 1777840818 | 26.11° C | 36% | 1021.5 hPa | 0 mm | - | 719 W/m² | - |
| 1777830019 | 24.44° C | 36% | 1021.5 hPa | 0 mm | - | 949 W/m² | - |
| 1777825819 | 23.89° C | 39% | 1021.5 hPa | 0 mm | - | 893 W/m² | - |
| 1777810819 | 8.89° C | 88% | 1021.5 hPa | 0 mm | - | 158 W/m² | - |
| 1777803019 | 7.78° C | 86% | 1021.5 hPa | 0 mm | - | 0 W/m² | - |
| 1777797620 | 8.33° C | 85% | 1021.5 hPa | 0 mm | - | 0 W/m² | - |
| 1777794620 | 8.89° C | 85% | 1021.5 hPa | 0 mm | - | 0 W/m² | - |
| 1777792219 | 9.44° C | 84% | 1021.5 hPa | 0 mm | - | 0 W/m² | - |
| 1777791020 | 9.44° C | 84% | 1021.5 hPa | 0 mm | - | 0 W/m² | - |
| 1777789220 | 9.44° C | 84% | 1021.5 hPa | 0 mm | - | 0 W/m² | - |
| 1777780820 | 11.11° C | 78% | 1021.5 hPa | 0 mm | - | 0 W/m² | - |
| 1777773020 | 15° C | 67% | 1021.5 hPa | 0 mm | - | 0 W/m² | - |
| 1777771220 | 16.67° C | 63% | 1021.5 hPa | 0 mm | - | 0 W/m² | - |
| 1777768820 | 18.33° C | 54% | 1021.5 hPa | 0 mm | - | 0 W/m² | - |
| 1777767021 | 19.44° C | 50% | 1021.5 hPa | 0 mm | - | 14 W/m² | - |
| 1777765820 | 20° C | 47% | 1021.5 hPa | 0 mm | - | 23 W/m² | - |
| 1777762220 | 22.22° C | 48% | 1021.5 hPa | 0 mm | - | 308 W/m² | - |
| 1777755021 | 22.78° C | 58% | 1021.5 hPa | 0 mm | - | 708 W/m² | - |
| 1777753821 | 22.78° C | 60% | 1021.5 hPa | 0 mm | - | 860 W/m² | - |
| 1777746621 | 22.22° C | 65% | 1021.5 hPa | 0 mm | - | 1086 W/m² | - |
| 1777744821 | 21.67° C | 67% | 1021.5 hPa | 0 mm | - | 1034 W/m² | - |
| 1777737621 | 18.33° C | 80% | 1021.5 hPa | 0 mm | - | 499 W/m² | - |
| 1777735821 | 17.22° C | 88% | 1021.5 hPa | 0 mm | - | 849 W/m² | - |
| 1777731621 | 13.89° C | 91% | 1021.5 hPa | 0 mm | - | 253 W/m² | - |
| 1777728022 | 12.78° C | 91% | 1021.5 hPa | 0 mm | - | 146 W/m² | - |
* Rain latest hour (hover to see other rain measurements)
** Current wind speed in m/s (hover to see current wind gust speed)